Time;durP1;ratioP1;P1;durP2;ratioP2;P2;SDS_P1;SDS_P2;PMS_P1;PMS_P2;Temp;Humidity;BMP_temperature;BMP_pressure;BME280_temperature;BME280_humidity;BME280_pressure;Samples;Min_cycle;Max_cycle;Signal;HPM_P1;HPM_P2
2021/05/08 00:00:18;;;;;;;10.68;3.60;;;;;;;;;;5087444;28;20039;-74
2021/05/08 00:02:44;;;;;;;13.80;3.55;;;;;;;;;;5092748;28;20314;-74
2021/05/08 00:05:11;;;;;;;10.88;3.47;;;;;;;;;;5076514;28;20125;-74
2021/05/08 00:07:37;;;;;;;;;;;;;;;;;;5078722;28;20043;-74
2021/05/08 00:10:06;;;;;;;10.83;3.83;;;;;;;;;;5089680;28;20370;-74
2021/05/08 00:12:32;;;;;;;9.82;3.13;;;;;;;;;;5082590;28;20078;-74
2021/05/08 00:14:58;;;;;;;11.23;3.53;;;;;;;;;;5083008;28;20040;-74
2021/05/08 00:17:24;;;;;;;11.32;3.45;;;;;;;;;;5087029;28;20036;-75
2021/05/08 00:19:50;;;;;;;9.57;3.47;;;;;;;;;;5088799;28;20111;-74
2021/05/08 00:22:16;;;;;;;13.63;3.63;;;;;;;;;;5072411;28;20541;-74
2021/05/08 00:24:42;;;;;;;10.43;3.60;;;;;;;;;;5081145;28;20032;-74
2021/05/08 00:27:08;;;;;;;7.93;3.05;;;;;;;;;;5072200;28;20339;-73
2021/05/08 00:29:34;;;;;;;10.70;3.42;;;;;;;;;;5089669;28;20028;-74
2021/05/08 00:32:00;;;;;;;13.63;3.70;;;;;;;;;;5092709;28;20157;-73
2021/05/08 00:34:27;;;;;;;12.00;3.40;;;;;;;;;;5091645;28;20131;-73
2021/05/08 00:36:53;;;;;;;12.43;3.63;;;;;;;;;;5092758;28;20110;-73
2021/05/08 00:39:19;;;;;;;11.93;3.35;;;;;;;;;;5087112;28;20112;-73
2021/05/08 00:41:45;;;;;;;9.95;3.60;;;;;;;;;;5080754;28;20085;-73
2021/05/08 00:44:10;;;;;;;7.95;3.08;;;;;;;;;;5092206;28;20085;-73
2021/05/08 00:46:36;;;;;;;9.68;3.50;;;;;;;;;;5082159;28;20052;-73
2021/05/08 00:49:05;;;;;;;8.63;3.30;;;;;;;;;;5072340;28;20060;-73
2021/05/08 00:51:31;;;;;;;8.57;2.83;;;;;;;;;;5072951;28;20120;-74
2021/05/08 00:53:58;;;;;;;8.77;3.10;;;;;;;;;;5084497;28;20524;-73
2021/05/08 00:56:24;;;;;;;12.00;3.38;;;;;;;;;;5084330;28;20024;-73
2021/05/08 00:58:50;;;;;;;10.18;3.20;;;;;;;;;;5073567;28;20435;-73
2021/05/08 01:01:16;;;;;;;8.63;3.35;;;;;;;;;;5072960;28;20108;-73
2021/05/08 01:03:45;;;;;;;6.82;3.15;;;;;;;;;;5070101;28;20036;-73
2021/05/08 01:06:12;;;;;;;9.45;3.17;;;;;;;;;;5080191;28;20032;-73
2021/05/08 01:08:38;;;;;;;7.72;3.05;;;;;;;;;;5086722;28;20065;-74
2021/05/08 01:11:04;;;;;;;8.32;2.95;;;;;;;;;;5089206;28;20426;-74
2021/05/08 01:13:32;;;;;;;7.93;2.93;;;;;;;;;;5086910;28;20082;-73
2021/05/08 01:15:58;;;;;;;9.52;2.80;;;;;;;;;;5088746;28;20293;-74
2021/05/08 01:18:24;;;;;;;7.88;3.10;;;;;;;;;;5081216;28;20031;-73
2021/05/08 01:20:50;;;;;;;7.83;2.70;;;;;;;;;;5071786;28;20070;-74
2021/05/08 01:23:17;;;;;;;7.47;2.70;;;;;;;;;;5071522;28;20047;-73
2021/05/08 01:25:42;;;;;;;7.30;2.90;;;;;;;;;;5075325;28;20097;-73
2021/05/08 01:28:08;;;;;;;8.52;2.88;;;;;;;;;;5075942;28;20473;-73
2021/05/08 01:30:35;;;;;;;8.98;2.97;;;;;;;;;;5080859;28;20031;-74
2021/05/08 01:33:01;;;;;;;6.70;2.75;;;;;;;;;;5082887;28;20028;-74
2021/05/08 01:35:29;;;;;;;12.63;2.87;;;;;;;;;;5073548;28;20068;-73
2021/05/08 01:37:55;;;;;;;9.07;2.50;;;;;;;;;;5090913;28;20024;-74
2021/05/08 01:40:26;;;;;;;7.65;2.83;;;;;;;;;;5084472;28;20063;-74
2021/05/08 01:42:53;;;;;;;6.13;2.63;;;;;;;;;;5080952;28;20486;-74
2021/05/08 01:45:20;;;;;;;8.35;2.80;;;;;;;;;;5073607;28;20040;-74
2021/05/08 01:47:46;;;;;;;;;;;;;;;;;;5088323;28;20043;-74
2021/05/08 01:50:13;;;;;;;7.87;2.97;;;;;;;;;;5085626;28;20366;-74
2021/05/08 01:52:39;;;;;;;7.63;2.67;;;;;;;;;;5072176;28;20059;-74
2021/05/08 01:55:06;;;;;;;7.40;2.85;;;;;;;;;;5071478;28;20021;-74
2021/05/08 01:57:38;;;;;;;9.57;2.70;;;;;;;;;;5077195;28;20458;-74
2021/05/08 02:00:08;;;;;;;6.00;2.42;;;;;;;;;;5070792;28;20028;-74
2021/05/08 02:02:34;;;;;;;6.07;2.53;;;;;;;;;;5080642;28;20397;-74
2021/05/08 02:05:00;;;;;;;8.95;2.63;;;;;;;;;;5090314;28;20035;-75
2021/05/08 02:07:26;;;;;;;6.72;2.60;;;;;;;;;;5085615;28;20048;-74
2021/05/08 02:09:52;;;;;;;7.05;2.50;;;;;;;;;;5086452;28;20146;-74
2021/05/08 02:12:18;;;;;;;6.10;2.58;;;;;;;;;;5083789;28;20050;-74
2021/05/08 02:14:44;;;;;;;7.45;2.67;;;;;;;;;;5081096;28;20038;-74
2021/05/08 02:17:10;;;;;;;8.40;3.10;;;;;;;;;;5070046;28;20032;-74
2021/05/08 02:19:36;;;;;;;7.15;2.65;;;;;;;;;;5082300;28;20190;-73
2021/05/08 02:22:02;;;;;;;6.38;2.30;;;;;;;;;;5078449;28;20727;-74
2021/05/08 02:24:28;;;;;;;6.25;2.45;;;;;;;;;;5070403;28;20039;-73
2021/05/08 02:26:54;;;;;;;4.70;2.28;;;;;;;;;;5077897;28;20032;-73
2021/05/08 02:29:20;;;;;;;7.35;2.70;;;;;;;;;;5083500;28;20024;-74
2021/05/08 02:31:46;;;;;;;6.18;2.38;;;;;;;;;;5080333;28;20032;-74
2021/05/08 02:34:12;;;;;;;5.70;2.30;;;;;;;;;;5079968;28;20028;-74
2021/05/08 02:36:38;;;;;;;6.05;2.35;;;;;;;;;;5070674;28;20043;-74
2021/05/08 02:39:04;;;;;;;4.63;2.22;;;;;;;;;;5071435;28;20086;-74
2021/05/08 02:41:30;;;;;;;9.02;2.63;;;;;;;;;;5082829;28;20397;-75
2021/05/08 02:43:56;;;;;;;5.50;2.33;;;;;;;;;;5076192;28;20024;-74
2021/05/08 02:46:22;;;;;;;6.95;2.50;;;;;;;;;;5071218;28;20062;-74
2021/05/08 02:48:48;;;;;;;4.97;2.28;;;;;;;;;;5078790;28;20040;-74
2021/05/08 02:51:14;;;;;;;6.57;2.42;;;;;;;;;;5090313;28;20028;-74
2021/05/08 02:53:40;;;;;;;5.05;2.25;;;;;;;;;;5086595;28;20442;-74
2021/05/08 02:56:06;;;;;;;6.32;2.65;;;;;;;;;;5084597;28;20036;-74
2021/05/08 02:58:32;;;;;;;4.55;2.38;;;;;;;;;;5070309;28;20402;-74
2021/05/08 03:00:58;;;;;;;5.00;2.40;;;;;;;;;;5074487;28;20024;-74
2021/05/08 03:03:24;;;;;;;4.47;2.10;;;;;;;;;;5082038;28;20036;-74
2021/05/08 03:05:50;;;;;;;5.75;2.38;;;;;;;;;;5088244;28;20024;-74
2021/05/08 03:08:16;;;;;;;5.50;2.00;;;;;;;;;;5090218;28;20032;-74
2021/05/08 03:10:42;;;;;;;6.03;2.20;;;;;;;;;;5076360;28;20538;-74
2021/05/08 03:13:08;;;;;;;5.35;2.00;;;;;;;;;;5071244;28;20043;-74
2021/05/08 03:15:34;;;;;;;4.97;2.38;;;;;;;;;;5079469;28;20098;-75
2021/05/08 03:18:00;;;;;;;5.30;2.22;;;;;;;;;;5082493;28;20028;-75
2021/05/08 03:20:26;;;;;;;4.82;2.17;;;;;;;;;;5088550;28;20066;-75
2021/05/08 03:22:52;;;;;;;7.85;2.55;;;;;;;;;;5086385;28;20082;-74
2021/05/08 03:25:18;;;;;;;4.07;2.03;;;;;;;;;;5089344;28;20374;-74
2021/05/08 03:27:44;;;;;;;3.78;1.60;;;;;;;;;;5076443;28;20033;-74
2021/05/08 03:30:10;;;;;;;7.28;2.40;;;;;;;;;;5090258;28;20032;-75
2021/05/08 03:32:36;;;;;;;4.80;1.97;;;;;;;;;;5089374;28;20032;-74
2021/05/08 03:35:02;;;;;;;5.03;2.13;;;;;;;;;;5090051;28;20074;-74
2021/05/08 03:37:28;;;;;;;6.85;2.10;;;;;;;;;;5084385;28;20039;-74
2021/05/08 03:39:54;;;;;;;4.22;2.00;;;;;;;;;;5086690;28;20020;-74
2021/05/08 03:42:20;;;;;;;5.22;2.15;;;;;;;;;;5086917;28;20068;-74
2021/05/08 03:44:46;;;;;;;5.55;2.20;;;;;;;;;;5089561;28;20039;-74
2021/05/08 03:47:12;;;;;;;5.90;1.77;;;;;;;;;;5079658;28;20052;-74
2021/05/08 03:49:39;;;;;;;4.80;2.05;;;;;;;;;;5076684;28;20038;-74
2021/05/08 03:52:05;;;;;;;4.43;2.08;;;;;;;;;;5077165;28;20037;-73
2021/05/08 03:54:31;;;;;;;5.15;2.00;;;;;;;;;;5077021;28;20024;-74
2021/05/08 03:56:59;;;;;;;4.30;2.00;;;;;;;;;;5082886;28;20497;-74
2021/05/08 03:59:25;;;;;;;4.00;1.92;;;;;;;;;;5069761;28;20338;-74
2021/05/08 04:01:51;;;;;;;4.50;1.80;;;;;;;;;;5071618;28;20208;-74
2021/05/08 04:04:17;;;;;;;5.03;2.10;;;;;;;;;;5077245;28;20103;-73
2021/05/08 04:06:43;;;;;;;2.93;1.73;;;;;;;;;;5081040;28;20029;-74
2021/05/08 04:09:10;;;;;;;3.67;2.00;;;;;;;;;;5079491;28;20393;-74
2021/05/08 04:11:37;;;;;;;4.60;2.40;;;;;;;;;;5086329;28;20083;-74
2021/05/08 04:14:04;;;;;;;2.88;1.67;;;;;;;;;;5072734;28;20039;-74
2021/05/08 04:16:31;;;;;;;3.38;2.00;;;;;;;;;;5078699;28;20024;-75
2021/05/08 04:18:58;;;;;;;4.03;1.95;;;;;;;;;;5086939;28;20091;-74
2021/05/08 04:21:24;;;;;;;;;;;;;;;;;;5072986;28;20040;-74
2021/05/08 04:23:50;;;;;;;3.67;1.95;;;;;;;;;;5084757;28;20277;-74
2021/05/08 04:26:16;;;;;;;4.13;1.90;;;;;;;;;;5086283;28;20028;-74
2021/05/08 04:28:42;;;;;;;4.07;2.10;;;;;;;;;;5073155;28;20730;-74
2021/05/08 04:31:08;;;;;;;4.33;1.97;;;;;;;;;;5076134;28;20035;-74
2021/05/08 04:33:34;;;;;;;5.37;1.80;;;;;;;;;;5075547;28;20032;-73
2021/05/08 04:35:59;;;;;;;5.27;1.97;;;;;;;;;;5078619;28;20262;-74
2021/05/08 04:38:25;;;;;;;5.10;2.10;;;;;;;;;;5084337;28;20012;-74
2021/05/08 04:40:55;;;;;;;5.20;2.00;;;;;;;;;;5074744;28;20704;-75
2021/05/08 04:43:21;;;;;;;5.50;1.80;;;;;;;;;;5090030;28;20043;-74
2021/05/08 04:45:47;;;;;;;4.60;2.10;;;;;;;;;;5103443;28;20114;-74
2021/05/08 04:48:21;;;;;;;5.75;2.10;;;;;;;;;;5092818;28;20262;-74
2021/05/08 04:50:47;;;;;;;4.82;2.20;;;;;;;;;;5089312;28;20058;-75
2021/05/08 04:53:13;;;;;;;4.47;2.00;;;;;;;;;;5077653;28;20024;-74
2021/05/08 04:55:38;;;;;;;5.20;2.00;;;;;;;;;;5083509;28;20266;-75
2021/05/08 04:58:05;;;;;;;6.67;2.00;;;;;;;;;;5083954;28;20715;-75
2021/05/08 05:00:31;;;;;;;;;;;;;;;;;;5092103;28;20413;-75
2021/05/08 05:02:57;;;;;;;2.45;1.70;;;;;;;;;;5092019;28;19916;-75
2021/05/08 05:05:23;;;;;;;4.80;1.70;;;;;;;;;;5092174;28;20111;-74
2021/05/08 05:07:49;;;;;;;6.60;2.10;;;;;;;;;;5090769;28;20120;-74
2021/05/08 05:10:15;;;;;;;2.60;1.73;;;;;;;;;;5092858;28;20328;-75
2021/05/08 05:12:43;;;;;;;3.75;1.92;;;;;;;;;;5096329;28;20062;-74
2021/05/08 05:15:09;;;;;;;4.95;1.90;;;;;;;;;;5091642;28;20090;-75
2021/05/08 05:17:35;;;;;;;5.43;2.10;;;;;;;;;;5091881;28;20024;-74
2021/05/08 05:20:02;;;;;;;4.68;1.98;;;;;;;;;;5092057;28;20020;-75
2021/05/08 05:22:28;;;;;;;5.40;2.00;;;;;;;;;;5091995;28;20032;-74
2021/05/08 05:24:54;;;;;;;4.15;1.90;;;;;;;;;;5088322;28;20376;-75
2021/05/08 05:27:20;;;;;;;3.40;1.85;;;;;;;;;;5089847;28;20032;-75
2021/05/08 05:29:46;;;;;;;2.80;1.63;;;;;;;;;;5076467;28;20090;-75
2021/05/08 05:32:12;;;;;;;7.13;1.70;;;;;;;;;;5071430;28;20033;-74
2021/05/08 05:34:38;;;;;;;20.77;2.90;;;;;;;;;;5071227;28;20139;-74
2021/05/08 05:37:04;;;;;;;4.03;1.87;;;;;;;;;;5071167;28;20112;-75
2021/05/08 05:39:30;;;;;;;10.87;2.40;;;;;;;;;;5071463;28;20250;-74
2021/05/08 05:41:56;;;;;;;14.20;2.17;;;;;;;;;;5072254;28;20495;-74
2021/05/08 05:44:22;;;;;;;7.03;1.80;;;;;;;;;;5071034;28;20028;-74
2021/05/08 05:46:48;;;;;;;4.70;1.88;;;;;;;;;;5091213;28;20056;-74
2021/05/08 05:49:14;;;;;;;7.30;2.37;;;;;;;;;;5091227;28;20065;-75
2021/05/08 05:51:40;;;;;;;10.57;2.13;;;;;;;;;;5082700;28;20028;-73
2021/05/08 05:54:06;;;;;;;7.33;2.40;;;;;;;;;;5071564;28;20040;-73
2021/05/08 05:56:32;;;;;;;3.95;1.70;;;;;;;;;;5078035;28;20286;-74
2021/05/08 05:58:58;;;;;;;4.88;1.83;;;;;;;;;;5092114;28;20032;-73
2021/05/08 06:01:24;;;;;;;4.00;1.70;;;;;;;;;;5104991;28;20027;-75
2021/05/08 06:03:51;;;;;;;6.78;1.70;;;;;;;;;;5107854;28;20386;-76
2021/05/08 06:06:17;;;;;;;4.40;1.75;;;;;;;;;;5105275;28;20032;-73
2021/05/08 06:08:43;;;;;;;31.73;2.20;;;;;;;;;;5091522;28;20210;-74
2021/05/08 06:11:09;;;;;;;4.97;1.97;;;;;;;;;;5091267;28;20027;-72
2021/05/08 06:13:35;;;;;;;3.47;1.70;;;;;;;;;;5093017;28;20042;-79
2021/05/08 06:16:02;;;;;;;16.05;2.38;;;;;;;;;;5111386;27;20031;-77
2021/05/08 06:18:28;;;;;;;1.70;1.42;;;;;;;;;;5104030;28;20029;-78
2021/05/08 06:20:54;;;;;;;1.50;1.30;;;;;;;;;;5070961;28;20021;-78
2021/05/08 06:23:21;;;;;;;4.60;1.30;;;;;;;;;;5069807;28;20078;-77
2021/05/08 06:25:47;;;;;;;8.40;2.83;;;;;;;;;;5071735;28;20045;-78
2021/05/08 06:28:13;;;;;;;10.25;1.92;;;;;;;;;;5071203;28;20078;-78
2021/05/08 06:30:40;;;;;;;8.17;2.20;;;;;;;;;;5071277;28;20078;-78
2021/05/08 06:33:06;;;;;;;8.00;2.92;;;;;;;;;;5086884;28;20131;-74
2021/05/08 06:35:32;;;;;;;6.23;2.17;;;;;;;;;;5096604;28;20059;-78
2021/05/08 06:37:58;;;;;;;18.10;2.30;;;;;;;;;;5096845;28;20698;-77
2021/05/08 06:40:24;;;;;;;8.63;2.30;;;;;;;;;;5096828;28;20458;-75
2021/05/08 06:42:50;;;;;;;5.37;1.80;;;;;;;;;;5096006;28;20038;-73
2021/05/08 06:45:16;;;;;;;6.77;2.20;;;;;;;;;;5094919;28;20027;-81
2021/05/08 06:47:42;;;;;;;4.10;1.93;;;;;;;;;;5092341;28;20047;-85
2021/05/08 06:50:09;;;;;;;4.20;1.90;;;;;;;;;;5099876;28;20409;-75
2021/05/08 06:52:34;;;;;;;5.70;1.45;;;;;;;;;;5099689;28;20028;-76
2021/05/08 06:55:00;;;;;;;5.73;1.50;;;;;;;;;;5100554;28;20073;-79
2021/05/08 06:57:26;;;;;;;4.07;1.40;;;;;;;;;;5099007;28;20043;-76
2021/05/08 06:59:52;;;;;;;12.10;1.30;;;;;;;;;;5096136;28;20046;-74
2021/05/08 07:02:18;;;;;;;1.55;1.13;;;;;;;;;;5097658;28;20070;-73
2021/05/08 07:04:44;;;;;;;3.03;1.40;;;;;;;;;;5095756;28;20055;-73
2021/05/08 07:07:10;;;;;;;1.63;1.20;;;;;;;;;;5098269;28;20845;-71
2021/05/08 07:09:36;;;;;;;2.73;1.00;;;;;;;;;;5099096;28;20074;-73
2021/05/08 07:12:02;;;;;;;1.90;1.20;;;;;;;;;;5100011;28;20046;-72
2021/05/08 07:14:28;;;;;;;1.55;1.08;;;;;;;;;;5097922;28;20032;-72
2021/05/08 07:16:54;;;;;;;1.07;1.00;;;;;;;;;;5098333;28;20024;-73
2021/05/08 07:19:20;;;;;;;1.43;1.27;;;;;;;;;;5098940;28;20040;-73
2021/05/08 07:21:46;;;;;;;1.47;0.90;;;;;;;;;;5098591;28;20049;-73
2021/05/08 07:24:12;;;;;;;1.43;1.33;;;;;;;;;;5100155;28;20024;-74
2021/05/08 07:26:38;;;;;;;1.10;1.10;;;;;;;;;;5100158;28;20023;-80
2021/05/08 07:29:04;;;;;;;1.57;1.20;;;;;;;;;;5097866;28;20039;-74
2021/05/08 07:31:30;;;;;;;5.77;1.43;;;;;;;;;;5099776;28;20020;-74
2021/05/08 07:33:56;;;;;;;3.50;1.50;;;;;;;;;;5099197;28;20069;-73
2021/05/08 07:36:22;;;;;;;3.40;1.30;;;;;;;;;;5101849;28;20032;-74
2021/05/08 07:38:48;;;;;;;2.03;1.10;;;;;;;;;;5103672;28;20092;-74
2021/05/08 07:41:14;;;;;;;2.63;1.10;;;;;;;;;;5103817;28;20020;-73
2021/05/08 07:43:40;;;;;;;6.40;1.20;;;;;;;;;;5104092;28;20034;-74
2021/05/08 07:46:06;;;;;;;1.73;1.07;;;;;;;;;;5103611;28;20073;-74
2021/05/08 07:48:32;;;;;;;4.30;1.20;;;;;;;;;;5101960;28;20040;-73
2021/05/08 07:50:58;;;;;;;1.97;0.90;;;;;;;;;;5101446;28;20028;-74
2021/05/08 07:53:24;;;;;;;1.57;1.20;;;;;;;;;;5103961;27;20308;-74
2021/05/08 07:55:50;;;;;;;3.00;1.30;;;;;;;;;;5103990;28;20024;-72
2021/05/08 07:58:16;;;;;;;2.63;1.10;;;;;;;;;;5102853;28;20032;-72
2021/05/08 08:00:42;;;;;;;5.67;1.27;;;;;;;;;;5103163;28;20036;-73
2021/05/08 08:03:08;;;;;;;5.33;1.50;;;;;;;;;;5102321;28;20054;-72
2021/05/08 08:05:34;;;;;;;2.83;1.20;;;;;;;;;;5101153;28;20054;-72
2021/05/08 08:08:00;;;;;;;1.77;1.10;;;;;;;;;;5102692;28;20055;-73
2021/05/08 08:10:27;;;;;;;4.75;1.17;;;;;;;;;;5101152;28;20023;-74
2021/05/08 08:12:53;;;;;;;1.88;1.33;;;;;;;;;;5099704;28;20043;-74
2021/05/08 08:15:19;;;;;;;1.33;1.10;;;;;;;;;;5100559;28;20047;-73
2021/05/08 08:17:46;;;;;;;5.10;1.27;;;;;;;;;;5102502;28;20032;-72
2021/05/08 08:20:12;;;;;;;;;;;;;;;;;;5102035;28;20049;-73
2021/05/08 08:22:38;;;;;;;1.63;1.05;;;;;;;;;;5102870;28;19916;-72
2021/05/08 08:25:05;;;;;;;2.97;1.08;;;;;;;;;;5102762;28;20442;-73
2021/05/08 08:27:31;;;;;;;3.78;1.50;;;;;;;;;;5103550;28;20106;-73
2021/05/08 08:29:57;;;;;;;2.43;0.97;;;;;;;;;;5101796;28;20085;-74
2021/05/08 08:32:23;;;;;;;4.17;1.30;;;;;;;;;;5103156;28;20055;-76
2021/05/08 08:34:49;;;;;;;1.13;0.97;;;;;;;;;;5103096;28;20727;-76
2021/05/08 08:37:15;;;;;;;2.92;1.30;;;;;;;;;;5103131;28;20024;-76
2021/05/08 08:39:41;;;;;;;2.50;1.40;;;;;;;;;;5103298;28;20041;-74
2021/05/08 08:42:08;;;;;;;2.00;1.20;;;;;;;;;;5103021;28;20546;-76
2021/05/08 08:44:37;;;;;;;2.95;1.08;;;;;;;;;;5101151;28;20473;-75
2021/05/08 08:47:04;;;;;;;3.60;1.30;;;;;;;;;;5100999;28;20040;-77
2021/05/08 08:49:30;;;;;;;4.05;1.40;;;;;;;;;;5101871;28;20151;-74
2021/05/08 08:51:56;;;;;;;1.67;1.30;;;;;;;;;;5102545;28;20047;-73
2021/05/08 08:54:22;;;;;;;1.83;1.30;;;;;;;;;;5102884;28;20028;-74
2021/05/08 08:56:50;;;;;;;3.03;1.42;;;;;;;;;;5102120;28;20091;-74
2021/05/08 08:59:25;;;;;;;2.55;1.25;;;;;;;;;;5109892;28;20019;-75
2021/05/08 09:01:51;;;;;;;1.20;1.13;;;;;;;;;;5111947;28;20485;-74
2021/05/08 09:04:18;;;;;;;5.07;1.33;;;;;;;;;;5113918;28;20016;-74
2021/05/08 09:06:45;;;;;;;1.55;1.00;;;;;;;;;;5112187;28;20026;-73
2021/05/08 09:09:11;;;;;;;8.10;1.33;;;;;;;;;;5113383;28;20028;-77
2021/05/08 09:11:56;;;;;;;6.00;1.30;;;;;;;;;;5089267;28;20428;-78
2021/05/08 09:14:26;;;;;;;1.10;0.93;;;;;;;;;;5080640;28;20020;-79
2021/05/08 09:17:00;;;;;;;1.27;1.17;;;;;;;;;;5089792;28;20029;-81
2021/05/08 09:19:26;;;;;;;1.05;0.90;;;;;;;;;;5079215;28;20024;-79
2021/05/08 09:21:52;;;;;;;1.27;1.13;;;;;;;;;;5082215;28;20044;-79
2021/05/08 09:24:18;;;;;;;2.50;1.50;;;;;;;;;;5077203;28;20365;-77
2021/05/08 09:26:48;;;;;;;1.67;1.00;;;;;;;;;;5083180;28;20039;-80
2021/05/08 09:29:18;;;;;;;2.08;1.00;;;;;;;;;;5079486;28;20012;-81
2021/05/08 09:32:08;;;;;;;1.42;1.15;;;;;;;;;;5082471;28;20531;-81
2021/05/08 09:34:34;;;;;;;1.88;1.10;;;;;;;;;;5072110;28;20020;-80
2021/05/08 09:37:00;;;;;;;0.80;0.80;;;;;;;;;;5072110;28;20028;-84
2021/05/08 09:39:30;;;;;;;1.80;1.30;;;;;;;;;;5077724;28;20915;-84
2021/05/08 09:41:56;;;;;;;1.52;1.10;;;;;;;;;;5086258;28;20039;-82
2021/05/08 09:44:22;;;;;;;1.23;1.10;;;;;;;;;;5078154;28;20111;-83
2021/05/08 09:46:48;;;;;;;4.00;1.05;;;;;;;;;;5084729;28;20066;-83
2021/05/08 09:49:15;;;;;;;2.77;1.10;;;;;;;;;;5085337;28;20054;-83
2021/05/08 09:51:41;;;;;;;;;;;;;;;;;;5079141;28;20135;-86
2021/05/08 09:54:07;;;;;;;;;;;;;;;;;;5079472;28;19963;-88
2021/05/08 09:56:37;;;;;;;3.23;1.77;;;;;;;;;;5082541;28;19973;-80
2021/05/08 09:59:22;;;;;;;4.68;2.05;;;;;;;;;;5085203;28;20296;-90
2021/05/08 10:01:49;;;;;;;4.95;2.17;;;;;;;;;;5080864;28;20478;-84
2021/05/08 10:04:34;;;;;;;4.68;2.20;;;;;;;;;;5071890;28;20111;-82
2021/05/08 10:07:07;;;;;;;1.83;1.70;;;;;;;;;;5079332;28;20024;-82
2021/05/08 10:09:33;;;;;;;3.90;1.98;;;;;;;;;;5079643;28;20031;-82
2021/05/08 10:12:00;;;;;;;3.35;2.17;;;;;;;;;;5085574;28;20115;-82
2021/05/08 10:14:26;;;;;;;3.55;2.28;;;;;;;;;;5075100;28;20086;-83
2021/05/08 10:16:53;;;;;;;5.33;2.40;;;;;;;;;;5071754;28;20135;-84
2021/05/08 10:19:19;;;;;;;4.38;2.55;;;;;;;;;;5075990;28;20046;-82
2021/05/08 10:21:45;;;;;;;2.60;2.20;;;;;;;;;;5085376;28;20453;-82
2021/05/08 10:24:11;;;;;;;4.68;2.83;;;;;;;;;;5071162;28;20580;-83
2021/05/08 10:26:38;;;;;;;3.83;2.87;;;;;;;;;;5070827;28;20033;-82
2021/05/08 10:29:04;;;;;;;3.38;2.08;;;;;;;;;;5081194;28;20510;-81
2021/05/08 10:31:31;;;;;;;3.15;1.88;;;;;;;;;;5090343;28;20020;-80
2021/05/08 10:33:56;;;;;;;4.27;1.90;;;;;;;;;;5089073;28;20078;-80
2021/05/08 10:36:46;;;;;;;2.45;1.67;;;;;;;;;;5073081;28;20463;-81
2021/05/08 10:39:12;;;;;;;4.60;1.75;;;;;;;;;;5069270;28;20036;-84
2021/05/08 10:41:53;;;;;;;1.60;1.50;;;;;;;;;;5074415;28;20506;-82
2021/05/08 10:44:38;;;;;;;3.65;1.70;;;;;;;;;;5070736;28;20111;-80
2021/05/08 10:47:04;;;;;;;5.78;1.70;;;;;;;;;;5069760;28;20072;-78
2021/05/08 10:49:30;;;;;;;1.88;1.40;;;;;;;;;;5068572;28;20063;-78
2021/05/08 10:51:58;;;;;;;1.65;1.27;;;;;;;;;;5081946;28;20038;-78
2021/05/08 10:54:39;;;;;;;2.92;1.30;;;;;;;;;;5091712;28;20023;-79
2021/05/08 10:57:14;;;;;;;3.17;1.65;;;;;;;;;;5090356;28;20466;-79
2021/05/08 10:59:59;;;;;;;3.08;1.45;;;;;;;;;;5091231;28;20027;-77
2021/05/08 11:02:40;;;;;;;4.68;1.50;;;;;;;;;;5092665;28;20054;-74
2021/05/08 11:05:26;;;;;;;6.68;1.60;;;;;;;;;;5097334;28;20054;-79
2021/05/08 11:07:52;;;;;;;2.70;1.20;;;;;;;;;;5082798;28;20046;-81
2021/05/08 11:10:33;;;;;;;5.97;1.67;;;;;;;;;;5076124;28;20020;-83
2021/05/08 11:13:05;;;;;;;6.05;2.00;;;;;;;;;;5082688;28;20062;-87
2021/05/08 11:15:56;;;;;;;7.70;1.95;;;;;;;;;;5081704;28;20036;-86
2021/05/08 11:18:31;;;;;;;4.55;2.03;;;;;;;;;;5093186;28;20024;-91
2021/05/08 11:21:04;;;;;;;6.60;1.70;;;;;;;;;;5093929;28;20448;-89
2021/05/08 11:23:48;;;;;;;3.65;1.80;;;;;;;;;;5094362;28;20063;-89
2021/05/08 11:26:24;;;;;;;7.35;1.95;;;;;;;;;;5094825;28;20036;-88
2021/05/08 11:28:53;;;;;;;3.40;1.70;;;;;;;;;;5095572;28;20040;-89
2021/05/08 11:31:28;;;;;;;2.10;1.67;;;;;;;;;;5095199;28;20028;-90
2021/05/08 11:34:13;;;;;;;3.67;1.70;;;;;;;;;;5095313;28;20024;-89
2021/05/08 11:36:43;;;;;;;3.30;1.55;;;;;;;;;;5095331;28;20089;-89
2021/05/08 11:39:13;;;;;;;2.33;1.63;;;;;;;;;;5094869;28;20028;-88
2021/05/08 11:41:39;;;;;;;3.38;1.50;;;;;;;;;;5092561;28;20417;-88
2021/05/08 11:44:05;;;;;;;2.80;1.63;;;;;;;;;;5093818;28;20458;-89
2021/05/08 11:46:33;;;;;;;2.50;1.60;;;;;;;;;;5093572;28;20425;-90
2021/05/08 11:49:00;;;;;;;3.33;1.60;;;;;;;;;;5094128;28;20059;-87
2021/05/08 11:51:26;;;;;;;2.55;1.58;;;;;;;;;;5093943;28;20021;-91
2021/05/08 11:54:13;;;;;;;2.73;1.40;;;;;;;;;;5093913;28;20028;-88
2021/05/08 11:56:39;;;;;;;1.95;1.67;;;;;;;;;;5093154;28;20731;-89
2021/05/08 11:59:07;;;;;;;4.43;1.70;;;;;;;;;;5093883;28;20028;-90
2021/05/08 12:01:33;;;;;;;2.13;1.50;;;;;;;;;;5094151;28;20027;-89
2021/05/08 12:04:00;;;;;;;1.60;1.50;;;;;;;;;;5093983;28;20489;-89
2021/05/08 12:06:27;;;;;;;2.75;1.60;;;;;;;;;;5094139;28;20111;-90
2021/05/08 12:08:54;;;;;;;2.20;1.73;;;;;;;;;;5093811;28;20020;-90
2021/05/08 12:11:20;;;;;;;2.90;1.70;;;;;;;;;;5094032;28;20028;-89
2021/05/08 12:13:47;;;;;;;5.78;1.73;;;;;;;;;;5093685;28;20028;-90
2021/05/08 12:16:13;;;;;;;3.17;1.70;;;;;;;;;;5090909;28;20024;-89
2021/05/08 12:18:39;;;;;;;2.58;1.70;;;;;;;;;;5091868;28;20134;-90
2021/05/08 12:21:06;;;;;;;2.83;1.80;;;;;;;;;;5092336;28;20028;-90
2021/05/08 12:23:32;;;;;;;;;;;;;;;;;;5093268;28;20032;-88
2021/05/08 12:26:11;;;;;;;2.70;1.57;;;;;;;;;;5093321;28;19908;-90
2021/05/08 12:28:38;;;;;;;4.45;1.98;;;;;;;;;;5093137;28;20304;-89
2021/05/08 12:31:18;;;;;;;2.40;1.83;;;;;;;;;;5092918;28;20035;-88
2021/05/08 12:33:44;;;;;;;3.15;1.75;;;;;;;;;;5093054;28;20024;-90
2021/05/08 12:36:15;;;;;;;2.88;1.70;;;;;;;;;;5092900;28;20024;-90
2021/05/08 12:38:41;;;;;;;2.05;1.85;;;;;;;;;;5092642;28;20040;-88
2021/05/08 12:41:26;;;;;;;2.05;1.70;;;;;;;;;;5092511;28;20066;-89
2021/05/08 12:44:03;;;;;;;3.78;1.92;;;;;;;;;;5092646;28;20028;-89
2021/05/08 12:46:29;;;;;;;;;;;;;;;;;;5093244;28;20074;-89
2021/05/08 12:49:05;;;;;;;1.70;1.60;;;;;;;;;;5092601;28;19904;-91
2021/05/08 12:51:32;;;;;;;3.70;1.80;;;;;;;;;;5093239;28;20028;-89
2021/05/08 12:53:57;;;;;;;;;;;;;;;;;;5091449;28;20394;-87
2021/05/08 12:56:26;;;;;;;2.33;1.50;;;;;;;;;;5092802;28;19904;-89
2021/05/08 12:58:52;;;;;;;3.25;1.63;;;;;;;;;;5092466;28;20297;-90
2021/05/08 13:01:26;;;;;;;3.15;1.95;;;;;;;;;;5092136;28;20060;-91
2021/05/08 13:03:52;;;;;;;3.72;1.77;;;;;;;;;;5092080;28;20044;-91
2021/05/08 13:06:26;;;;;;;2.63;1.60;;;;;;;;;;5092550;28;20038;-91
2021/05/08 13:08:53;;;;;;;2.47;1.60;;;;;;;;;;5092321;28;20123;-92
2021/05/08 13:11:19;;;;;;;;;;;;;;;;;;5092414;28;20035;-89
2021/05/08 13:13:45;;;;;;;4.40;1.58;;;;;;;;;;5092327;28;19904;-88
2021/05/08 13:16:11;;;;;;;1.83;1.52;;;;;;;;;;5092098;28;20402;-87
2021/05/08 13:18:37;;;;;;;3.00;1.60;;;;;;;;;;5091970;28;20043;-88
2021/05/08 13:21:06;;;;;;;2.28;1.70;;;;;;;;;;5091902;28;20103;-88
2021/05/08 13:23:32;;;;;;;3.60;1.77;;;;;;;;;;5091859;28;20028;-89
2021/05/08 13:25:58;;;;;;;2.83;1.70;;;;;;;;;;5091891;28;20131;-88
2021/05/08 13:28:24;;;;;;;3.73;1.70;;;;;;;;;;5091886;28;20032;-82
2021/05/08 13:30:50;;;;;;;1.63;1.47;;;;;;;;;;5091896;28;20021;-81
2021/05/08 13:33:16;;;;;;;4.57;1.77;;;;;;;;;;5091655;28;20405;-81
2021/05/08 13:35:42;;;;;;;2.80;1.60;;;;;;;;;;5091723;28;20034;-82
2021/05/08 13:38:08;;;;;;;3.97;1.50;;;;;;;;;;5090973;28;20025;-81
2021/05/08 13:40:34;;;;;;;2.75;1.63;;;;;;;;;;5091341;28;20046;-82
2021/05/08 13:43:00;;;;;;;2.65;1.48;;;;;;;;;;5091873;28;20090;-81
2021/05/08 13:45:26;;;;;;;1.85;1.50;;;;;;;;;;5101882;28;20036;-80
2021/05/08 13:47:52;;;;;;;1.67;1.55;;;;;;;;;;5093838;28;20094;-82
2021/05/08 13:50:18;;;;;;;2.13;1.57;;;;;;;;;;5091465;28;20486;-83
2021/05/08 13:52:44;;;;;;;2.10;1.57;;;;;;;;;;5091736;28;20024;-82
2021/05/08 13:55:12;;;;;;;3.20;1.90;;;;;;;;;;5091186;28;20254;-82
2021/05/08 13:57:38;;;;;;;2.88;1.67;;;;;;;;;;5089711;28;20034;-82
2021/05/08 14:00:05;;;;;;;2.97;1.80;;;;;;;;;;5091128;28;20127;-82
2021/05/08 14:02:31;;;;;;;2.33;1.65;;;;;;;;;;5091574;28;20032;-82
2021/05/08 14:04:57;;;;;;;1.63;1.50;;;;;;;;;;5091389;28;20118;-81
2021/05/08 14:07:23;;;;;;;2.10;1.45;;;;;;;;;;5091290;28;20099;-82
2021/05/08 14:09:50;;;;;;;3.60;1.87;;;;;;;;;;5089129;28;20131;-82
2021/05/08 14:12:16;;;;;;;1.80;1.60;;;;;;;;;;5091183;28;20526;-82
2021/05/08 14:14:42;;;;;;;3.40;1.87;;;;;;;;;;5091027;28;20107;-82
2021/05/08 14:17:08;;;;;;;3.80;1.47;;;;;;;;;;5090946;28;20040;-81
2021/05/08 14:19:34;;;;;;;2.03;1.50;;;;;;;;;;5091032;28;20064;-82
2021/05/08 14:22:00;;;;;;;1.47;1.23;;;;;;;;;;5089664;28;20032;-82
2021/05/08 14:24:26;;;;;;;6.00;1.70;;;;;;;;;;5090227;28;20423;-80
2021/05/08 14:26:52;;;;;;;3.63;1.40;;;;;;;;;;5082244;28;20059;-82
2021/05/08 14:29:18;;;;;;;6.50;1.70;;;;;;;;;;5072402;28;20305;-80
2021/05/08 14:31:44;;;;;;;8.20;1.77;;;;;;;;;;5083207;28;20054;-81
2021/05/08 14:34:10;;;;;;;3.85;1.50;;;;;;;;;;5085204;28;20581;-82
2021/05/08 14:36:36;;;;;;;5.73;1.60;;;;;;;;;;5070401;28;20095;-79
2021/05/08 14:39:02;;;;;;;4.67;1.90;;;;;;;;;;5076860;28;20357;-80
2021/05/08 14:41:28;;;;;;;4.95;2.00;;;;;;;;;;5079680;28;20036;-84
2021/05/08 14:43:54;;;;;;;3.00;1.60;;;;;;;;;;5083647;28;20032;-80
2021/05/08 14:46:21;;;;;;;6.23;1.90;;;;;;;;;;5069172;28;20498;-79